sensor_id;sensor_type;location;lat;lon;timestamp;P1;durP1;ratioP1;P2;durP2;ratioP2
20365;SDS011;10341;49.894;8.822;2023-06-10T00:08:11;15.02;;;10.07;;
20365;SDS011;10341;49.894;8.822;2023-06-10T00:13:30;13.93;;;10.88;;
20365;SDS011;10341;49.894;8.822;2023-06-10T00:18:49;13.48;;;10.32;;
20365;SDS011;10341;49.894;8.822;2023-06-10T00:29:30;15.07;;;11.23;;
20365;SDS011;10341;49.894;8.822;2023-06-10T00:34:51;12.73;;;10.20;;
20365;SDS011;10341;49.894;8.822;2023-06-10T00:40:11;12.43;;;9.55;;
20365;SDS011;10341;49.894;8.822;2023-06-10T00:45:31;11.80;;;10.27;;
20365;SDS011;10341;49.894;8.822;2023-06-10T00:50:51;14.32;;;11.35;;
20365;SDS011;10341;49.894;8.822;2023-06-10T00:56:10;17.20;;;11.13;;
20365;SDS011;10341;49.894;8.822;2023-06-10T01:01:18;12.30;;;10.68;;
20365;SDS011;10341;49.894;8.822;2023-06-10T01:12:16;13.82;;;11.05;;
20365;SDS011;10341;49.894;8.822;2023-06-10T01:23:16;14.02;;;10.30;;
20365;SDS011;10341;49.894;8.822;2023-06-10T01:28:39;13.00;;;10.13;;
20365;SDS011;10341;49.894;8.822;2023-06-10T01:34:08;14.45;;;11.23;;
20365;SDS011;10341;49.894;8.822;2023-06-10T01:39:30;12.45;;;10.35;;
20365;SDS011;10341;49.894;8.822;2023-06-10T01:50:10;14.07;;;10.82;;
20365;SDS011;10341;49.894;8.822;2023-06-10T01:55:29;14.90;;;10.60;;
20365;SDS011;10341;49.894;8.822;2023-06-10T02:00:48;14.45;;;11.13;;
20365;SDS011;10341;49.894;8.822;2023-06-10T02:06:07;13.95;;;10.55;;
20365;SDS011;10341;49.894;8.822;2023-06-10T02:11:26;13.05;;;10.32;;
20365;SDS011;10341;49.894;8.822;2023-06-10T02:16:46;13.48;;;10.73;;
20365;SDS011;10341;49.894;8.822;2023-06-10T02:27:25;13.60;;;10.27;;
20365;SDS011;10341;49.894;8.822;2023-06-10T02:32:47;15.77;;;10.55;;
20365;SDS011;10341;49.894;8.822;2023-06-10T02:38:08;11.40;;;9.68;;
20365;SDS011;10341;49.894;8.822;2023-06-10T02:43:28;14.88;;;10.63;;
20365;SDS011;10341;49.894;8.822;2023-06-10T02:48:48;13.90;;;10.50;;
20365;SDS011;10341;49.894;8.822;2023-06-10T02:54:14;12.00;;;9.75;;
20365;SDS011;10341;49.894;8.822;2023-06-10T02:59:35;13.00;;;10.13;;
20365;SDS011;10341;49.894;8.822;2023-06-10T03:04:55;15.48;;;10.95;;
20365;SDS011;10341;49.894;8.822;2023-06-10T03:10:15;15.23;;;11.55;;
20365;SDS011;10341;49.894;8.822;2023-06-10T03:20:59;14.75;;;10.35;;
20365;SDS011;10341;49.894;8.822;2023-06-10T03:26:20;12.95;;;9.75;;
20365;SDS011;10341;49.894;8.822;2023-06-10T03:31:41;13.38;;;10.30;;
20365;SDS011;10341;49.894;8.822;2023-06-10T03:37:01;15.32;;;10.80;;
20365;SDS011;10341;49.894;8.822;2023-06-10T03:42:22;12.82;;;10.13;;
20365;SDS011;10341;49.894;8.822;2023-06-10T03:47:41;14.20;;;10.30;;
20365;SDS011;10341;49.894;8.822;2023-06-10T03:53:05;11.25;;;9.32;;
20365;SDS011;10341;49.894;8.822;2023-06-10T03:58:25;12.85;;;10.02;;
20365;SDS011;10341;49.894;8.822;2023-06-10T04:03:45;16.73;;;10.70;;
20365;SDS011;10341;49.894;8.822;2023-06-10T04:09:04;15.98;;;11.10;;
20365;SDS011;10341;49.894;8.822;2023-06-10T04:14:23;15.38;;;12.30;;
20365;SDS011;10341;49.894;8.822;2023-06-10T04:19:43;12.60;;;9.85;;
20365;SDS011;10341;49.894;8.822;2023-06-10T04:25:03;15.80;;;11.55;;
20365;SDS011;10341;49.894;8.822;2023-06-10T04:30:22;12.27;;;9.85;;
20365;SDS011;10341;49.894;8.822;2023-06-10T04:35:43;16.55;;;10.75;;
20365;SDS011;10341;49.894;8.822;2023-06-10T04:41:06;15.27;;;10.18;;
20365;SDS011;10341;49.894;8.822;2023-06-10T04:46:19;12.75;;;10.15;;
20365;SDS011;10341;49.894;8.822;2023-06-10T04:51:38;14.20;;;11.45;;
20365;SDS011;10341;49.894;8.822;2023-06-10T04:56:58;12.20;;;10.27;;
20365;SDS011;10341;49.894;8.822;2023-06-10T05:02:19;13.77;;;10.50;;
20365;SDS011;10341;49.894;8.822;2023-06-10T05:07:38;14.13;;;11.68;;
20365;SDS011;10341;49.894;8.822;2023-06-10T05:12:58;15.18;;;11.60;;
20365;SDS011;10341;49.894;8.822;2023-06-10T05:18:17;16.90;;;12.38;;
20365;SDS011;10341;49.894;8.822;2023-06-10T05:23:36;15.65;;;12.38;;
20365;SDS011;10341;49.894;8.822;2023-06-10T05:28:56;19.08;;;13.50;;
20365;SDS011;10341;49.894;8.822;2023-06-10T05:34:15;15.32;;;11.68;;
20365;SDS011;10341;49.894;8.822;2023-06-10T05:39:35;15.10;;;11.80;;
20365;SDS011;10341;49.894;8.822;2023-06-10T05:44:56;13.70;;;10.48;;
20365;SDS011;10341;49.894;8.822;2023-06-10T05:50:15;11.38;;;9.15;;
20365;SDS011;10341;49.894;8.822;2023-06-10T05:55:34;11.32;;;8.75;;
20365;SDS011;10341;49.894;8.822;2023-06-10T06:00:53;13.40;;;9.90;;
20365;SDS011;10341;49.894;8.822;2023-06-10T06:06:13;10.45;;;8.95;;
20365;SDS011;10341;49.894;8.822;2023-06-10T06:11:33;11.35;;;8.38;;
20365;SDS011;10341;49.894;8.822;2023-06-10T06:16:53;10.32;;;8.55;;
20365;SDS011;10341;49.894;8.822;2023-06-10T06:22:12;10.93;;;8.95;;
20365;SDS011;10341;49.894;8.822;2023-06-10T06:27:30;10.20;;;8.20;;
20365;SDS011;10341;49.894;8.822;2023-06-10T06:32:50;9.30;;;7.82;;
20365;SDS011;10341;49.894;8.822;2023-06-10T06:43:29;9.35;;;6.97;;
20365;SDS011;10341;49.894;8.822;2023-06-10T06:49:00;9.82;;;6.70;;
20365;SDS011;10341;49.894;8.822;2023-06-10T06:54:20;8.30;;;6.47;;
20365;SDS011;10341;49.894;8.822;2023-06-10T06:59:39;8.40;;;6.93;;
20365;SDS011;10341;49.894;8.822;2023-06-10T07:04:58;11.10;;;7.10;;
20365;SDS011;10341;49.894;8.822;2023-06-10T07:10:17;10.88;;;7.47;;
20365;SDS011;10341;49.894;8.822;2023-06-10T07:15:38;7.88;;;6.63;;
20365;SDS011;10341;49.894;8.822;2023-06-10T07:20:58;8.93;;;6.88;;
20365;SDS011;10341;49.894;8.822;2023-06-10T07:26:17;10.50;;;7.77;;
20365;SDS011;10341;49.894;8.822;2023-06-10T07:31:36;7.47;;;6.67;;
20365;SDS011;10341;49.894;8.822;2023-06-10T07:36:55;9.18;;;6.35;;
20365;SDS011;10341;49.894;8.822;2023-06-10T07:42:15;9.77;;;7.37;;
20365;SDS011;10341;49.894;8.822;2023-06-10T07:47:34;8.10;;;6.63;;
20365;SDS011;10341;49.894;8.822;2023-06-10T07:52:46;7.80;;;6.75;;
20365;SDS011;10341;49.894;8.822;2023-06-10T07:58:05;8.07;;;6.57;;
20365;SDS011;10341;49.894;8.822;2023-06-10T08:03:24;6.85;;;6.05;;
20365;SDS011;10341;49.894;8.822;2023-06-10T08:08:43;10.03;;;6.13;;
20365;SDS011;10341;49.894;8.822;2023-06-10T08:14:05;6.43;;;5.70;;
20365;SDS011;10341;49.894;8.822;2023-06-10T08:19:24;9.48;;;5.90;;
20365;SDS011;10341;49.894;8.822;2023-06-10T08:24:44;6.43;;;5.78;;
20365;SDS011;10341;49.894;8.822;2023-06-10T08:30:04;5.88;;;5.22;;
20365;SDS011;10341;49.894;8.822;2023-06-10T08:35:23;5.80;;;4.93;;
20365;SDS011;10341;49.894;8.822;2023-06-10T08:40:43;5.10;;;4.40;;
20365;SDS011;10341;49.894;8.822;2023-06-10T08:46:03;6.13;;;4.90;;
20365;SDS011;10341;49.894;8.822;2023-06-10T08:51:22;5.65;;;5.13;;
20365;SDS011;10341;49.894;8.822;2023-06-10T08:56:43;5.00;;;4.43;;
20365;SDS011;10341;49.894;8.822;2023-06-10T09:02:07;5.68;;;5.10;;
20365;SDS011;10341;49.894;8.822;2023-06-10T09:07:27;6.45;;;4.90;;
20365;SDS011;10341;49.894;8.822;2023-06-10T09:12:50;4.68;;;4.18;;
20365;SDS011;10341;49.894;8.822;2023-06-10T09:18:10;5.82;;;4.88;;
20365;SDS011;10341;49.894;8.822;2023-06-10T09:23:29;5.43;;;4.93;;
20365;SDS011;10341;49.894;8.822;2023-06-10T09:28:49;6.20;;;4.93;;
20365;SDS011;10341;49.894;8.822;2023-06-10T09:34:10;6.60;;;4.32;;
20365;SDS011;10341;49.894;8.822;2023-06-10T09:39:31;5.38;;;4.88;;
20365;SDS011;10341;49.894;8.822;2023-06-10T09:44:50;4.93;;;4.45;;
20365;SDS011;10341;49.894;8.822;2023-06-10T09:50:10;5.00;;;4.60;;
20365;SDS011;10341;49.894;8.822;2023-06-10T09:55:30;4.70;;;4.30;;
20365;SDS011;10341;49.894;8.822;2023-06-10T10:00:55;4.57;;;4.15;;
20365;SDS011;10341;49.894;8.822;2023-06-10T10:06:14;4.88;;;4.47;;
20365;SDS011;10341;49.894;8.822;2023-06-10T10:11:34;3.97;;;3.40;;
20365;SDS011;10341;49.894;8.822;2023-06-10T10:16:54;4.05;;;2.78;;
20365;SDS011;10341;49.894;8.822;2023-06-10T10:22:15;3.30;;;3.00;;
20365;SDS011;10341;49.894;8.822;2023-06-10T10:27:49;3.40;;;3.10;;
20365;SDS011;10341;49.894;8.822;2023-06-10T10:33:22;3.05;;;2.80;;
20365;SDS011;10341;49.894;8.822;2023-06-10T10:38:50;5.57;;;2.95;;
20365;SDS011;10341;49.894;8.822;2023-06-10T10:44:09;3.63;;;2.63;;
20365;SDS011;10341;49.894;8.822;2023-06-10T10:49:30;3.10;;;2.80;;
20365;SDS011;10341;49.894;8.822;2023-06-10T10:54:52;3.65;;;2.65;;
20365;SDS011;10341;49.894;8.822;2023-06-10T11:00:13;5.10;;;3.05;;
20365;SDS011;10341;49.894;8.822;2023-06-10T11:05:46;3.47;;;2.85;;
20365;SDS011;10341;49.894;8.822;2023-06-10T11:16:49;3.83;;;2.88;;
20365;SDS011;10341;49.894;8.822;2023-06-10T11:22:08;2.83;;;2.63;;
20365;SDS011;10341;49.894;8.822;2023-06-10T11:27:37;2.95;;;2.65;;
20365;SDS011;10341;49.894;8.822;2023-06-10T11:32:57;3.08;;;2.78;;
20365;SDS011;10341;49.894;8.822;2023-06-10T11:38:17;3.67;;;2.75;;
20365;SDS011;10341;49.894;8.822;2023-06-10T11:43:42;3.33;;;3.03;;
20365;SDS011;10341;49.894;8.822;2023-06-10T11:49:03;3.13;;;2.80;;
20365;SDS011;10341;49.894;8.822;2023-06-10T11:54:23;3.05;;;2.75;;
20365;SDS011;10341;49.894;8.822;2023-06-10T11:59:43;2.80;;;2.60;;
20365;SDS011;10341;49.894;8.822;2023-06-10T12:05:12;3.08;;;2.78;;
20365;SDS011;10341;49.894;8.822;2023-06-10T12:10:32;3.05;;;2.78;;
20365;SDS011;10341;49.894;8.822;2023-06-10T12:15:51;3.55;;;3.10;;
20365;SDS011;10341;49.894;8.822;2023-06-10T12:21:23;3.30;;;3.00;;
20365;SDS011;10341;49.894;8.822;2023-06-10T12:26:44;3.30;;;3.00;;
20365;SDS011;10341;49.894;8.822;2023-06-10T12:32:04;2.85;;;2.65;;
20365;SDS011;10341;49.894;8.822;2023-06-10T12:37:25;3.83;;;3.47;;
20365;SDS011;10341;49.894;8.822;2023-06-10T12:42:44;3.40;;;3.10;;
20365;SDS011;10341;49.894;8.822;2023-06-10T12:48:10;3.88;;;3.45;;
20365;SDS011;10341;49.894;8.822;2023-06-10T12:53:31;5.07;;;2.92;;
20365;SDS011;10341;49.894;8.822;2023-06-10T12:58:51;3.85;;;2.90;;
20365;SDS011;10341;49.894;8.822;2023-06-10T13:04:10;2.80;;;2.60;;
20365;SDS011;10341;49.894;8.822;2023-06-10T13:09:30;5.13;;;3.30;;
20365;SDS011;10341;49.894;8.822;2023-06-10T13:14:49;3.38;;;2.88;;
20365;SDS011;10341;49.894;8.822;2023-06-10T13:20:08;3.30;;;3.05;;
20365;SDS011;10341;49.894;8.822;2023-06-10T13:25:28;3.72;;;3.10;;
20365;SDS011;10341;49.894;8.822;2023-06-10T13:30:47;3.78;;;3.13;;
20365;SDS011;10341;49.894;8.822;2023-06-10T13:36:06;3.45;;;3.15;;
20365;SDS011;10341;49.894;8.822;2023-06-10T13:41:25;3.65;;;3.35;;
20365;SDS011;10341;49.894;8.822;2023-06-10T13:46:47;3.88;;;3.47;;
20365;SDS011;10341;49.894;8.822;2023-06-10T13:52:06;4.38;;;3.55;;
20365;SDS011;10341;49.894;8.822;2023-06-10T13:57:26;4.05;;;3.65;;
20365;SDS011;10341;49.894;8.822;2023-06-10T14:02:45;3.45;;;2.92;;
20365;SDS011;10341;49.894;8.822;2023-06-10T14:08:05;3.50;;;3.20;;
20365;SDS011;10341;49.894;8.822;2023-06-10T14:13:24;4.03;;;3.45;;
20365;SDS011;10341;49.894;8.822;2023-06-10T14:18:44;4.32;;;3.33;;
20365;SDS011;10341;49.894;8.822;2023-06-10T14:24:03;3.88;;;3.15;;
20365;SDS011;10341;49.894;8.822;2023-06-10T14:29:22;3.40;;;3.10;;
20365;SDS011;10341;49.894;8.822;2023-06-10T14:34:41;4.18;;;3.13;;
20365;SDS011;10341;49.894;8.822;2023-06-10T14:40:03;3.28;;;2.97;;
20365;SDS011;10341;49.894;8.822;2023-06-10T14:45:24;3.30;;;3.00;;
20365;SDS011;10341;49.894;8.822;2023-06-10T14:50:44;3.35;;;3.05;;
20365;SDS011;10341;49.894;8.822;2023-06-10T14:56:05;3.63;;;2.90;;
20365;SDS011;10341;49.894;8.822;2023-06-10T15:01:24;2.85;;;2.42;;
20365;SDS011;10341;49.894;8.822;2023-06-10T15:06:43;3.58;;;2.80;;
20365;SDS011;10341;49.894;8.822;2023-06-10T15:12:02;3.03;;;2.58;;
20365;SDS011;10341;49.894;8.822;2023-06-10T15:17:22;2.85;;;2.65;;
20365;SDS011;10341;49.894;8.822;2023-06-10T15:22:41;3.05;;;2.75;;
20365;SDS011;10341;49.894;8.822;2023-06-10T15:28:00;3.25;;;2.65;;
20365;SDS011;10341;49.894;8.822;2023-06-10T15:33:20;2.78;;;2.58;;
20365;SDS011;10341;49.894;8.822;2023-06-10T15:38:39;2.75;;;2.55;;
20365;SDS011;10341;49.894;8.822;2023-06-10T15:43:59;2.85;;;2.55;;
20365;SDS011;10341;49.894;8.822;2023-06-10T15:49:18;3.10;;;2.72;;
20365;SDS011;10341;49.894;8.822;2023-06-10T15:54:37;4.00;;;2.45;;
20365;SDS011;10341;49.894;8.822;2023-06-10T15:59:56;2.83;;;2.60;;
20365;SDS011;10341;49.894;8.822;2023-06-10T16:05:15;2.55;;;2.33;;
20365;SDS011;10341;49.894;8.822;2023-06-10T16:10:34;2.53;;;2.33;;
20365;SDS011;10341;49.894;8.822;2023-06-10T16:15:53;3.25;;;2.30;;
20365;SDS011;10341;49.894;8.822;2023-06-10T16:21:13;2.80;;;2.50;;
20365;SDS011;10341;49.894;8.822;2023-06-10T16:26:33;3.50;;;2.65;;
20365;SDS011;10341;49.894;8.822;2023-06-10T16:31:52;4.07;;;2.70;;
20365;SDS011;10341;49.894;8.822;2023-06-10T16:37:12;2.75;;;2.50;;
20365;SDS011;10341;49.894;8.822;2023-06-10T16:42:32;3.08;;;2.47;;
20365;SDS011;10341;49.894;8.822;2023-06-10T16:47:51;2.95;;;2.72;;
20365;SDS011;10341;49.894;8.822;2023-06-10T16:53:11;3.08;;;2.78;;
20365;SDS011;10341;49.894;8.822;2023-06-10T16:58:30;3.30;;;3.00;;
20365;SDS011;10341;49.894;8.822;2023-06-10T17:03:49;3.10;;;2.80;;
20365;SDS011;10341;49.894;8.822;2023-06-10T17:14:27;3.47;;;3.17;;
20365;SDS011;10341;49.894;8.822;2023-06-10T17:19:47;7.50;;;3.83;;
20365;SDS011;10341;49.894;8.822;2023-06-10T17:25:06;4.43;;;3.55;;
20365;SDS011;10341;49.894;8.822;2023-06-10T17:30:26;4.28;;;3.88;;
20365;SDS011;10341;49.894;8.822;2023-06-10T17:35:45;4.32;;;3.92;;
20365;SDS011;10341;49.894;8.822;2023-06-10T17:41:05;5.45;;;4.30;;
20365;SDS011;10341;49.894;8.822;2023-06-10T17:46:25;5.07;;;4.00;;
20365;SDS011;10341;49.894;8.822;2023-06-10T17:51:44;4.73;;;4.23;;
20365;SDS011;10341;49.894;8.822;2023-06-10T17:57:03;5.05;;;4.43;;
20365;SDS011;10341;49.894;8.822;2023-06-10T18:02:24;5.65;;;4.57;;
20365;SDS011;10341;49.894;8.822;2023-06-10T18:07:43;5.15;;;4.43;;
20365;SDS011;10341;49.894;8.822;2023-06-10T18:13:03;5.53;;;4.55;;
20365;SDS011;10341;49.894;8.822;2023-06-10T18:18:22;4.97;;;4.47;;
20365;SDS011;10341;49.894;8.822;2023-06-10T18:23:41;5.60;;;4.57;;
20365;SDS011;10341;49.894;8.822;2023-06-10T18:29:00;5.07;;;4.47;;
20365;SDS011;10341;49.894;8.822;2023-06-10T18:34:19;4.97;;;4.40;;
20365;SDS011;10341;49.894;8.822;2023-06-10T18:39:38;5.40;;;4.40;;
20365;SDS011;10341;49.894;8.822;2023-06-10T18:44:58;5.22;;;4.65;;
20365;SDS011;10341;49.894;8.822;2023-06-10T18:50:17;5.40;;;4.43;;
20365;SDS011;10341;49.894;8.822;2023-06-10T18:55:37;5.72;;;4.40;;
20365;SDS011;10341;49.894;8.822;2023-06-10T19:00:56;6.05;;;5.20;;
20365;SDS011;10341;49.894;8.822;2023-06-10T19:06:16;5.45;;;4.80;;
20365;SDS011;10341;49.894;8.822;2023-06-10T19:11:36;5.27;;;4.77;;
20365;SDS011;10341;49.894;8.822;2023-06-10T19:16:55;6.05;;;5.15;;
20365;SDS011;10341;49.894;8.822;2023-06-10T19:22:14;6.03;;;4.87;;
20365;SDS011;10341;49.894;8.822;2023-06-10T19:27:33;6.23;;;5.10;;
20365;SDS011;10341;49.894;8.822;2023-06-10T19:32:53;5.65;;;5.07;;
20365;SDS011;10341;49.894;8.822;2023-06-10T19:38:12;6.93;;;5.90;;
20365;SDS011;10341;49.894;8.822;2023-06-10T19:43:31;7.57;;;5.40;;
20365;SDS011;10341;49.894;8.822;2023-06-10T19:48:50;7.18;;;5.97;;
20365;SDS011;10341;49.894;8.822;2023-06-10T19:54:09;7.90;;;5.93;;
20365;SDS011;10341;49.894;8.822;2023-06-10T19:59:29;7.93;;;6.15;;
20365;SDS011;10341;49.894;8.822;2023-06-10T20:04:48;6.15;;;5.55;;
20365;SDS011;10341;49.894;8.822;2023-06-10T20:10:08;9.70;;;6.20;;
20365;SDS011;10341;49.894;8.822;2023-06-10T20:20:47;6.50;;;5.65;;
20365;SDS011;10341;49.894;8.822;2023-06-10T20:26:06;7.83;;;5.97;;
20365;SDS011;10341;49.894;8.822;2023-06-10T20:31:25;6.43;;;5.57;;
20365;SDS011;10341;49.894;8.822;2023-06-10T20:42:04;8.57;;;7.10;;
20365;SDS011;10341;49.894;8.822;2023-06-10T20:47:24;8.77;;;6.28;;
20365;SDS011;10341;49.894;8.822;2023-06-10T20:52:44;9.30;;;6.82;;
20365;SDS011;10341;49.894;8.822;2023-06-10T20:58:03;8.70;;;7.20;;
20365;SDS011;10341;49.894;8.822;2023-06-10T21:03:23;9.83;;;7.40;;
20365;SDS011;10341;49.894;8.822;2023-06-10T21:08:42;9.10;;;7.57;;
20365;SDS011;10341;49.894;8.822;2023-06-10T21:14:01;9.27;;;7.43;;
20365;SDS011;10341;49.894;8.822;2023-06-10T21:24:41;10.25;;;7.13;;
20365;SDS011;10341;49.894;8.822;2023-06-10T21:30:00;9.57;;;7.53;;
20365;SDS011;10341;49.894;8.822;2023-06-10T21:35:20;10.23;;;7.80;;
20365;SDS011;10341;49.894;8.822;2023-06-10T21:46:13;10.77;;;7.95;;
20365;SDS011;10341;49.894;8.822;2023-06-10T21:51:33;8.55;;;7.28;;
20365;SDS011;10341;49.894;8.822;2023-06-10T21:56:52;10.25;;;7.13;;
20365;SDS011;10341;49.894;8.822;2023-06-10T22:02:11;17.15;;;12.20;;
20365;SDS011;10341;49.894;8.822;2023-06-10T22:07:30;9.85;;;8.30;;
20365;SDS011;10341;49.894;8.822;2023-06-10T22:12:50;9.95;;;7.65;;
20365;SDS011;10341;49.894;8.822;2023-06-10T22:18:09;10.48;;;7.03;;
20365;SDS011;10341;49.894;8.822;2023-06-10T22:23:29;8.50;;;7.32;;
20365;SDS011;10341;49.894;8.822;2023-06-10T22:28:48;11.40;;;8.07;;
20365;SDS011;10341;49.894;8.822;2023-06-10T22:34:07;10.52;;;7.78;;
20365;SDS011;10341;49.894;8.822;2023-06-10T22:39:26;14.77;;;10.35;;
20365;SDS011;10341;49.894;8.822;2023-06-10T22:44:45;10.70;;;8.02;;
20365;SDS011;10341;49.894;8.822;2023-06-10T22:50:05;9.02;;;7.70;;
20365;SDS011;10341;49.894;8.822;2023-06-10T22:55:24;9.50;;;7.55;;
20365;SDS011;10341;49.894;8.822;2023-06-10T23:00:44;12.55;;;8.23;;
20365;SDS011;10341;49.894;8.822;2023-06-10T23:06:03;10.05;;;8.00;;
20365;SDS011;10341;49.894;8.822;2023-06-10T23:11:23;14.70;;;8.10;;
20365;SDS011;10341;49.894;8.822;2023-06-10T23:16:42;8.55;;;6.90;;
20365;SDS011;10341;49.894;8.822;2023-06-10T23:22:04;9.57;;;6.75;;
20365;SDS011;10341;49.894;8.822;2023-06-10T23:27:26;8.18;;;6.60;;
20365;SDS011;10341;49.894;8.822;2023-06-10T23:38:06;10.15;;;7.70;;
20365;SDS011;10341;49.894;8.822;2023-06-10T23:43:25;7.25;;;6.10;;
20365;SDS011;10341;49.894;8.822;2023-06-10T23:48:44;8.60;;;6.13;;
20365;SDS011;10341;49.894;8.822;2023-06-10T23:54:03;7.70;;;6.13;;
20365;SDS011;10341;49.894;8.822;2023-06-10T23:59:23;6.78;;;5.85;;
